Time;durP1;ratioP1;P1;durP2;ratioP2;P2;SDS_P1;SDS_P2;PMS_P1;PMS_P2;Temp;Humidity;BMP_temperature;BMP_pressure;BME280_temperature;BME280_humidity;BME280_pressure;Samples;Min_cycle;Max_cycle;Signal;HPM_P1;HPM_P2
2022/11/20 00:00:50;;;;;;;14.05;9.23;;;-0.40;99.90;;;;;;5042521;28;20870;-40
2022/11/20 00:03:19;;;;;;;13.02;9.10;;;-0.50;99.90;;;;;;5043876;28;20033;-40
2022/11/20 00:05:45;;;;;;;14.25;10.07;;;-0.50;99.90;;;;;;5042888;28;20029;-41
2022/11/20 00:08:10;;;;;;;15.60;9.80;;;-0.50;99.90;;;;;;5042557;28;20429;-41
2022/11/20 00:10:37;;;;;;;15.45;10.10;;;-0.50;99.90;;;;;;5043117;28;20473;-40
2022/11/20 00:13:03;;;;;;;17.20;11.20;;;-0.50;99.90;;;;;;5043338;28;20036;-42
2022/11/20 00:15:28;;;;;;;15.85;9.90;;;-0.50;99.90;;;;;;5040952;28;20017;-41
2022/11/20 00:17:54;;;;;;;15.07;10.15;;;-0.50;99.90;;;;;;5042170;28;20036;-42
2022/11/20 00:20:20;;;;;;;15.27;9.90;;;-0.50;99.90;;;;;;5042606;28;20135;-40
2022/11/20 00:22:45;;;;;;;13.50;9.10;;;-0.50;99.90;;;;;;5042462;28;20029;-42
2022/11/20 00:25:11;;;;;;;13.43;8.88;;;-0.50;99.90;;;;;;5043109;28;20037;-40
2022/11/20 00:27:36;;;;;;;11.48;8.55;;;-0.60;99.90;;;;;;5042008;28;20032;-39
2022/11/20 00:30:03;;;;;;;11.95;8.32;;;-0.60;99.90;;;;;;5042367;28;20029;-40
2022/11/20 00:32:29;;;;;;;12.70;8.40;;;-0.60;99.90;;;;;;5042318;28;20029;-41
2022/11/20 00:34:55;;;;;;;12.32;9.07;;;-0.60;99.90;;;;;;5042439;28;20053;-42
2022/11/20 00:37:21;;;;;;;13.27;8.75;;;-0.60;99.90;;;;;;5042178;28;20359;-41
2022/11/20 00:39:46;;;;;;;13.40;9.15;;;-0.60;99.90;;;;;;5042572;28;20384;-42
2022/11/20 00:42:12;;;;;;;14.63;8.82;;;-0.60;99.90;;;;;;5042719;28;20021;-41
2022/11/20 00:44:37;;;;;;;13.23;8.68;;;-0.60;99.90;;;;;;5042109;28;20017;-41
2022/11/20 00:47:03;;;;;;;10.82;7.90;;;-0.60;99.90;;;;;;5043374;28;20112;-42
2022/11/20 00:49:37;;;;;;;11.48;7.93;;;-0.70;99.90;;;;;;5043318;28;20109;-41
2022/11/20 00:52:03;;;;;;;11.55;7.63;;;-0.70;99.90;;;;;;5042727;28;20051;-42
2022/11/20 00:54:28;;;;;;;11.20;7.32;;;-0.70;99.90;;;;;;5042256;28;20606;-40
2022/11/20 00:56:56;;;;;;;13.57;8.63;;;-0.80;99.90;;;;;;5041439;28;20025;-42
2022/11/20 00:59:22;;;;;;;11.48;7.95;;;-0.80;99.90;;;;;;5042852;28;20025;-42
2022/11/20 01:01:48;;;;;;;14.48;9.15;;;-0.80;99.90;;;;;;5042304;28;20028;-40
2022/11/20 01:04:13;;;;;;;11.98;8.02;;;-0.80;99.90;;;;;;5041765;28;20033;-41
2022/11/20 01:06:39;;;;;;;11.57;7.80;;;-0.80;99.90;;;;;;5042020;28;20078;-42
2022/11/20 01:09:11;;;;;;;11.40;7.80;;;-0.80;99.90;;;;;;5042265;28;20484;-42
2022/11/20 01:11:39;;;;;;;9.23;6.87;;;-0.80;99.90;;;;;;5041055;28;20025;-42
2022/11/20 01:14:09;;;;;;;10.60;7.15;;;-0.80;99.90;;;;;;5041371;28;20141;-41
2022/11/20 01:16:40;;;;;;;12.30;7.97;;;-0.90;99.90;;;;;;5025026;28;20036;-41
2022/11/20 01:19:10;;;;;;;13.40;7.97;;;-0.90;99.90;;;;;;5041715;28;20161;-38
2022/11/20 01:21:39;;;;;;;10.63;7.10;;;-0.90;99.90;;;;;;5041432;28;20470;-42
2022/11/20 01:24:10;;;;;;;12.05;7.53;;;-0.90;99.90;;;;;;5042234;28;20036;-41
2022/11/20 01:26:37;;;;;;;11.65;7.68;;;-1.00;99.90;;;;;;5041292;28;20035;-42
2022/11/20 01:29:04;;;;;;;12.73;8.55;;;-1.00;99.90;;;;;;5046190;28;20468;-41
2022/11/20 01:31:35;;;;;;;11.35;7.13;;;-1.00;99.90;;;;;;5046477;28;20849;-42
2022/11/20 01:34:03;;;;;;;10.93;7.80;;;-1.00;99.90;;;;;;5044904;28;20181;-43
2022/11/20 01:36:30;;;;;;;10.30;6.82;;;-1.00;99.90;;;;;;5045975;28;20039;-41
2022/11/20 01:38:58;;;;;;;11.13;6.95;;;-1.00;99.90;;;;;;5045460;28;20025;-42
2022/11/20 01:44:14;;;;;;;10.40;7.10;;;-1.00;99.90;;;;;;5045992;28;20719;-42
2022/11/20 01:46:55;;;;;;;10.15;6.93;;;-1.10;99.90;;;;;;5027070;28;20026;-41
2022/11/20 01:49:48;;;;;;;12.13;7.85;;;-1.00;99.90;;;;;;5043117;28;20051;-42
2022/11/20 01:52:39;;;;;;;10.77;7.03;;;-1.10;99.90;;;;;;5023259;28;20038;-42
2022/11/20 01:55:10;;;;;;;10.02;6.85;;;-1.10;99.90;;;;;;5041313;28;20045;-42
2022/11/20 01:57:38;;;;;;;8.82;6.50;;;-1.10;99.90;;;;;;5045571;28;20029;-42
2022/11/20 02:00:13;;;;;;;12.10;7.45;;;-1.10;99.90;;;;;;5045220;28;20028;-42
2022/11/20 02:02:46;;;;;;;11.88;7.40;;;-1.10;99.90;;;;;;5045435;28;20029;-41
2022/11/20 02:05:24;;;;;;;12.80;8.20;;;-1.10;99.90;;;;;;5045051;28;20067;-42
2022/11/20 02:07:50;;;;;;;12.77;8.40;;;-1.00;99.90;;;;;;5044592;28;20124;-40
2022/11/20 02:10:16;;;;;;;12.68;8.63;;;-1.00;99.90;;;;;;5044338;28;20033;-40
2022/11/20 02:15:26;;;;;;;11.43;7.85;;;-1.00;99.90;;;;;;5044489;28;20113;-39
2022/11/20 02:17:53;;;;;;;11.82;8.25;;;-1.00;99.90;;;;;;5044518;28;20037;-41
2022/11/20 02:20:19;;;;;;;10.57;7.35;;;-1.00;99.90;;;;;;5043988;28;20071;-38
2022/11/20 02:22:56;;;;;;;11.23;7.93;;;-1.10;99.90;;;;;;5044059;28;20631;-40
2022/11/20 02:25:24;;;;;;;11.50;8.23;;;-1.00;99.90;;;;;;5045022;28;20040;-39
2022/11/20 02:27:50;;;;;;;10.35;7.30;;;-1.10;99.90;;;;;;5044353;28;20025;-39
2022/11/20 02:30:19;;;;;;;9.63;7.03;;;-1.10;99.90;;;;;;5043514;28;20021;-38
2022/11/20 02:32:44;;;;;;;9.98;7.53;;;-1.20;99.90;;;;;;5044481;28;20043;-40
2022/11/20 02:35:30;;;;;;;9.35;7.07;;;-1.20;99.90;;;;;;5043791;28;20053;-42
2022/11/20 02:37:59;;;;;;;10.75;7.45;;;-1.20;99.90;;;;;;5044162;28;20049;-38
2022/11/20 02:40:25;;;;;;;11.93;7.07;;;-1.30;99.90;;;;;;5043839;28;20029;-39
2022/11/20 02:42:57;;;;;;;10.70;7.80;;;-1.30;99.90;;;;;;5043977;28;20075;-41
2022/11/20 02:45:24;;;;;;;12.45;8.48;;;-1.30;99.90;;;;;;5045441;28;20021;-40
2022/11/20 02:47:50;;;;;;;13.05;8.18;;;-1.30;99.90;;;;;;5044836;28;20033;-40
2022/11/20 02:50:21;;;;;;;10.68;7.38;;;-1.30;99.90;;;;;;5043314;28;20029;-41
2022/11/20 02:53:07;;;;;;;11.00;7.30;;;-1.30;99.90;;;;;;5044690;28;20032;-41
2022/11/20 02:55:33;;;;;;;10.75;7.72;;;-1.30;99.90;;;;;;5043987;28;20808;-42
2022/11/20 02:57:58;;;;;;;9.13;6.60;;;-1.30;99.90;;;;;;5043664;28;20032;-41
2022/11/20 03:00:24;;;;;;;10.05;7.85;;;-1.30;99.90;;;;;;5044968;28;20025;-40
2022/11/20 03:02:50;;;;;;;9.20;7.00;;;-1.40;99.90;;;;;;5044457;28;20075;-39
2022/11/20 03:05:15;;;;;;;9.88;7.07;;;-1.40;99.90;;;;;;5043227;28;20119;-42
2022/11/20 03:07:41;;;;;;;10.05;6.32;;;-1.40;99.90;;;;;;5044138;28;20048;-41
2022/11/20 03:10:07;;;;;;;10.80;7.13;;;-1.40;99.90;;;;;;5043117;28;20124;-40
2022/11/20 03:12:32;;;;;;;10.07;6.72;;;-1.40;99.90;;;;;;5041543;28;20017;-40
2022/11/20 03:14:58;;;;;;;11.05;7.20;;;-1.50;99.90;;;;;;5042736;28;20620;-42
2022/11/20 03:17:23;;;;;;;10.15;7.22;;;-1.60;99.90;;;;;;5042491;28;20476;-39
2022/11/20 03:19:49;;;;;;;10.82;7.80;;;-1.60;99.90;;;;;;5043985;28;20021;-41
2022/11/20 03:22:14;;;;;;;11.77;7.32;;;-1.60;99.90;;;;;;5044093;28;20041;-41
2022/11/20 03:24:40;;;;;;;11.25;7.78;;;-1.60;99.90;;;;;;5043691;28;20070;-36
2022/11/20 03:27:05;;;;;;;9.80;6.30;;;-1.60;99.90;;;;;;5043328;28;20028;-38
2022/11/20 03:29:32;;;;;;;10.38;7.20;;;-1.60;99.90;;;;;;5042189;28;20025;-43
2022/11/20 03:31:57;;;;;;;9.85;6.70;;;-1.60;99.90;;;;;;5041746;28;20028;-40
2022/11/20 03:34:23;;;;;;;10.32;7.10;;;-1.60;99.90;;;;;;5043889;28;20044;-40
2022/11/20 03:36:49;;;;;;;10.18;7.45;;;-1.60;99.90;;;;;;5043980;28;20029;-40
2022/11/20 03:39:17;;;;;;;10.98;7.95;;;-1.60;99.90;;;;;;5043805;28;20045;-41
2022/11/20 03:41:43;;;;;;;10.57;7.28;;;-1.60;99.90;;;;;;5043650;28;20036;-40
2022/11/20 03:44:10;;;;;;;10.48;7.57;;;-1.60;99.90;;;;;;5043272;28;20048;-40
2022/11/20 03:46:36;;;;;;;10.88;7.45;;;-1.60;99.90;;;;;;5043386;28;20033;-42
2022/11/20 03:49:02;;;;;;;11.10;7.73;;;-1.60;99.90;;;;;;5043570;28;20039;-41
2022/11/20 03:51:34;;;;;;;10.38;7.80;;;-1.60;99.90;;;;;;5043814;28;20417;-40
2022/11/20 03:54:02;;;;;;;10.45;7.30;;;-1.60;99.90;;;;;;5042561;28;20102;-43
2022/11/20 03:56:32;;;;;;;13.15;8.40;;;-1.60;99.90;;;;;;5044303;28;20086;-39
2022/11/20 03:58:58;;;;;;;11.60;8.27;;;-1.60;99.90;;;;;;5043838;28;20033;-38
2022/11/20 04:01:31;;;;;;;11.53;8.00;;;-1.60;99.90;;;;;;5043816;28;20685;-41
2022/11/20 04:03:57;;;;;;;12.73;8.43;;;-1.60;99.90;;;;;;5043693;28;20091;-42
2022/11/20 04:06:25;;;;;;;10.82;7.72;;;-1.60;99.90;;;;;;5043606;28;20029;-42
2022/11/20 04:08:50;;;;;;;11.77;8.10;;;-1.60;99.90;;;;;;5042093;28;20051;-40
2022/11/20 04:11:17;;;;;;;11.00;7.57;;;-1.70;99.90;;;;;;5042988;28;20997;-43
2022/11/20 04:13:46;;;;;;;12.00;7.63;;;-1.70;99.90;;;;;;5040969;28;20036;-40
2022/11/20 04:16:12;;;;;;;12.87;8.47;;;-1.70;99.90;;;;;;5042982;28;20024;-41
2022/11/20 04:18:38;;;;;;;13.37;8.10;;;-1.70;99.90;;;;;;5042621;28;20035;-41
2022/11/20 04:21:05;;;;;;;11.90;7.97;;;-1.70;99.90;;;;;;5042145;28;20467;-41
2022/11/20 04:23:30;;;;;;;11.50;8.30;;;-1.70;99.90;;;;;;5043015;28;20024;-43
2022/11/20 04:26:10;;;;;;;10.97;7.83;;;-1.70;99.90;;;;;;5043067;28;20388;-42
2022/11/20 04:28:36;;;;;;;11.73;7.70;;;-1.70;99.90;;;;;;5041647;28;20021;-40
2022/11/20 04:31:07;;;;;;;12.27;8.07;;;-1.70;99.90;;;;;;5042203;28;20025;-39
2022/11/20 04:33:34;;;;;;;13.30;8.93;;;-1.80;99.90;;;;;;5042857;28;20036;-42
2022/11/20 04:36:05;;;;;;;11.87;8.50;;;-1.70;99.90;;;;;;5042020;28;20041;-40
2022/11/20 04:38:31;;;;;;;13.83;8.47;;;-1.70;99.90;;;;;;5042305;28;20687;-39
2022/11/20 04:41:08;;;;;;;12.03;8.40;;;-1.80;99.90;;;;;;5042295;28;20025;-39
2022/11/20 04:43:34;;;;;;;14.17;8.63;;;-1.80;99.90;;;;;;5040555;28;20122;-39
2022/11/20 04:46:00;;;;;;;11.60;8.67;;;-1.80;99.90;;;;;;5041591;28;20017;-42
2022/11/20 04:48:28;;;;;;;11.87;7.97;;;-1.80;99.90;;;;;;5042027;28;20037;-42
2022/11/20 04:50:54;;;;;;;12.97;8.50;;;-1.80;99.90;;;;;;5040374;28;20035;-40
2022/11/20 04:53:21;;;;;;;11.50;8.40;;;-1.80;99.90;;;;;;5042925;28;20384;-42
2022/11/20 04:55:47;;;;;;;12.93;8.90;;;-1.80;99.90;;;;;;5041736;28;20075;-40
2022/11/20 04:58:13;;;;;;;12.77;8.63;;;-1.90;99.90;;;;;;5043081;28;20063;-43
2022/11/20 05:00:39;;;;;;;10.77;7.80;;;-1.80;99.90;;;;;;5042475;28;20032;-39
2022/11/20 05:03:07;;;;;;;12.37;8.30;;;-1.90;99.90;;;;;;5041074;28;20170;-40
2022/11/20 05:05:34;;;;;;;11.33;8.60;;;-1.90;99.90;;;;;;5041306;28;20492;-40
2022/11/20 05:08:00;;;;;;;16.20;9.40;;;-1.90;99.90;;;;;;5042339;28;20028;-41
2022/11/20 05:10:28;;;;;;;14.43;10.07;;;-1.90;99.90;;;;;;5042245;28;20036;-42
2022/11/20 05:12:54;;;;;;;17.63;11.10;;;-1.90;99.90;;;;;;5042400;28;20075;-39
2022/11/20 05:15:22;;;;;;;18.70;10.80;;;-1.90;99.90;;;;;;5042177;28;20154;-41
2022/11/20 05:17:48;;;;;;;17.23;10.33;;;-1.90;99.90;;;;;;5040489;28;20033;-39
2022/11/20 05:20:14;;;;;;;16.70;10.87;;;-1.90;99.90;;;;;;5041278;28;20790;-41
2022/11/20 05:22:40;;;;;;;15.80;10.00;;;-1.90;99.90;;;;;;5042577;28;20025;-40
2022/11/20 05:25:08;;;;;;;12.63;8.60;;;-1.90;99.90;;;;;;5041782;28;20029;-42
2022/11/20 05:27:34;;;;;;;15.50;9.90;;;-2.00;99.90;;;;;;5042662;28;20451;-39
2022/11/20 05:29:59;;;;;;;14.50;10.37;;;-2.00;99.90;;;;;;5042605;28;20539;-41
2022/11/20 05:32:25;;;;;;;12.67;8.60;;;-2.00;99.90;;;;;;5041520;28;20036;-40
2022/11/20 05:34:51;;;;;;;14.30;9.97;;;-2.10;99.90;;;;;;5042107;28;20056;-41
2022/11/20 05:37:17;;;;;;;16.00;9.67;;;-2.10;99.90;;;;;;5042157;28;20114;-39
2022/11/20 05:39:42;;;;;;;13.00;8.53;;;-2.10;99.90;;;;;;5041409;28;20037;-43
2022/11/20 05:44:52;;;;;;;13.83;9.30;;;-2.10;99.90;;;;;;5021698;28;20135;-42
2022/11/20 05:47:17;;;;;;;12.77;8.90;;;-2.10;99.90;;;;;;5037055;28;20127;-42
2022/11/20 05:49:43;;;;;;;14.13;9.03;;;-2.10;99.90;;;;;;5041920;28;20029;-43
2022/11/20 05:52:09;;;;;;;11.67;7.40;;;-2.10;99.90;;;;;;5041291;28;20021;-44
2022/11/20 05:54:34;;;;;;;15.03;10.07;;;-2.20;99.90;;;;;;5041993;28;20110;-41
2022/11/20 05:57:00;;;;;;;13.47;8.63;;;-2.20;99.90;;;;;;5041984;28;20119;-41
2022/11/20 05:59:25;;;;;;;13.63;8.83;;;-2.30;99.90;;;;;;5041719;28;20478;-41
2022/11/20 06:01:51;;;;;;;12.17;8.10;;;-2.30;99.90;;;;;;5041429;28;20109;-42
2022/11/20 06:04:16;;;;;;;12.73;8.57;;;-2.30;99.90;;;;;;5041934;28;20076;-41
2022/11/20 06:06:42;;;;;;;13.00;8.23;;;-2.30;99.90;;;;;;5041030;28;20116;-41
2022/11/20 06:09:10;;;;;;;11.63;8.07;;;-2.30;99.90;;;;;;5040636;28;20411;-42
2022/11/20 06:11:36;;;;;;;11.60;7.47;;;-2.30;99.90;;;;;;5040639;28;20040;-41
2022/11/20 06:14:04;;;;;;;12.43;8.50;;;-2.30;99.90;;;;;;5042524;28;20749;-42
2022/11/20 06:16:33;;;;;;;13.37;8.63;;;-2.30;99.90;;;;;;5045905;28;20036;-43
2022/11/20 06:18:58;;;;;;;15.10;9.00;;;-2.30;99.90;;;;;;5045488;28;20032;-42
2022/11/20 06:21:24;;;;;;;13.27;9.27;;;-2.30;99.90;;;;;;5045146;28;20020;-42
2022/11/20 06:23:52;;;;;;;15.83;9.03;;;-2.30;99.90;;;;;;5044650;28;20116;-42
2022/11/20 06:26:20;;;;;;;13.87;8.90;;;-2.30;99.90;;;;;;5045649;28;20033;-41
2022/11/20 06:28:46;;;;;;;12.60;8.90;;;-2.30;99.90;;;;;;5044472;28;20090;-42
2022/11/20 06:31:14;;;;;;;14.57;8.83;;;-2.30;99.90;;;;;;5045052;28;20051;-42
2022/11/20 06:33:43;;;;;;;13.33;9.30;;;-2.30;99.90;;;;;;5044546;28;20124;-41
2022/11/20 06:36:10;;;;;;;14.70;9.37;;;-2.30;99.90;;;;;;5043390;28;20134;-43
2022/11/20 06:38:36;;;;;;;14.30;9.53;;;-2.30;99.90;;;;;;5043884;28;20079;-42
2022/11/20 06:41:04;;;;;;;14.23;8.77;;;-2.30;99.90;;;;;;5044233;28;20547;-43
2022/11/20 06:43:29;;;;;;;14.07;9.60;;;-2.30;99.90;;;;;;5043448;28;20033;-42
2022/11/20 06:45:56;;;;;;;15.87;9.57;;;-2.30;99.90;;;;;;5043796;28;20432;-41
2022/11/20 06:48:23;;;;;;;14.20;9.70;;;-2.30;99.90;;;;;;5043840;28;20039;-42
2022/11/20 06:50:49;;;;;;;14.70;10.40;;;-2.40;99.90;;;;;;5044486;28;20021;-42
2022/11/20 06:53:15;;;;;;;14.73;9.80;;;-2.40;99.90;;;;;;5043852;28;20167;-42
2022/11/20 06:55:44;;;;;;;16.33;10.33;;;-2.30;99.90;;;;;;5043785;28;20029;-42
2022/11/20 06:58:11;;;;;;;14.60;9.70;;;-2.40;99.90;;;;;;5044129;28;20036;-42
2022/11/20 07:00:36;;;;;;;15.00;9.90;;;-2.40;99.90;;;;;;5043884;28;20017;-41
2022/11/20 07:03:06;;;;;;;15.50;10.00;;;-2.40;99.90;;;;;;5043307;28;20546;-41
2022/11/20 07:05:32;;;;;;;16.07;10.57;;;-2.40;99.90;;;;;;5044068;28;20021;-42
2022/11/20 07:07:58;;;;;;;14.67;10.10;;;-2.30;99.90;;;;;;5043758;28;20036;-41
2022/11/20 07:10:26;;;;;;;17.73;10.20;;;-2.40;99.90;;;;;;5042937;28;20032;-41
2022/11/20 07:12:53;;;;;;;15.20;10.17;;;-2.40;99.90;;;;;;5044018;28;21020;-42
2022/11/20 07:15:19;;;;;;;16.80;10.63;;;-2.40;99.90;;;;;;5044187;28;20021;-40
2022/11/20 07:17:46;;;;;;;14.70;9.93;;;-2.40;99.90;;;;;;5043572;28;20106;-41
2022/11/20 07:20:12;;;;;;;14.97;10.33;;;-2.40;99.90;;;;;;5043711;28;20029;-42
2022/11/20 07:22:41;;;;;;;15.30;10.60;;;-2.30;99.90;;;;;;5043657;28;20098;-41
2022/11/20 07:25:09;;;;;;;15.87;11.33;;;-2.30;99.90;;;;;;5042092;28;20032;-42
2022/11/20 07:27:34;;;;;;;15.57;10.67;;;-2.30;99.90;;;;;;5043418;28;20102;-40
2022/11/20 07:30:00;;;;;;;16.90;11.03;;;-2.30;99.90;;;;;;5043867;28;20395;-40
2022/11/20 07:32:26;;;;;;;17.00;11.07;;;-2.30;99.90;;;;;;5043163;28;20248;-42
2022/11/20 07:34:52;;;;;;;14.70;10.73;;;-2.20;99.90;;;;;;5043498;28;20148;-42
2022/11/20 07:37:17;;;;;;;15.13;10.37;;;-2.20;99.90;;;;;;5048965;28;20060;-42
2022/11/20 07:39:47;;;;;;;15.93;10.37;;;-2.20;99.90;;;;;;5043211;28;20049;-40
2022/11/20 07:42:12;;;;;;;15.23;10.33;;;-2.20;99.90;;;;;;5032114;28;20032;-41
2022/11/20 07:44:39;;;;;;;15.23;10.10;;;-2.20;99.90;;;;;;5040684;28;20029;-41
2022/11/20 07:47:07;;;;;;;15.47;10.07;;;-2.20;99.90;;;;;;5041569;28;20025;-42
2022/11/20 07:49:33;;;;;;;15.07;10.47;;;-2.20;99.90;;;;;;5042716;28;20036;-42
2022/11/20 07:51:58;;;;;;;14.53;10.30;;;-2.10;99.90;;;;;;5042047;28;20032;-42
2022/11/20 07:54:24;;;;;;;16.27;10.53;;;-2.10;99.90;;;;;;5043312;28;20028;-40
2022/11/20 07:56:50;;;;;;;16.50;10.60;;;-2.10;99.90;;;;;;5042082;28;20119;-42
2022/11/20 07:59:16;;;;;;;14.53;9.60;;;-2.10;99.90;;;;;;5041540;28;20041;-41
2022/11/20 08:01:42;;;;;;;15.93;10.50;;;-2.00;99.90;;;;;;5044094;28;20025;-42
2022/11/20 08:04:09;;;;;;;15.63;9.93;;;-2.00;99.90;;;;;;5044187;28;20436;-42
2022/11/20 08:06:35;;;;;;;15.57;10.27;;;-2.00;99.90;;;;;;5048460;28;20028;-41
2022/11/20 08:09:02;;;;;;;14.70;10.20;;;-1.90;99.90;;;;;;5042866;28;20036;-44
2022/11/20 08:14:11;;;;;;;13.47;9.30;;;-1.80;99.90;;;;;;5042072;28;20044;-42
2022/11/20 08:16:47;;;;;;;12.50;9.07;;;-1.80;99.90;;;;;;5042292;28;20025;-40
2022/11/20 08:19:14;;;;;;;13.03;8.90;;;-1.70;99.90;;;;;;5042843;28;20043;-43
2022/11/20 08:21:40;;;;;;;11.13;8.47;;;-1.70;99.90;;;;;;5041559;28;20017;-41
2022/11/20 08:24:07;;;;;;;11.33;8.10;;;-1.60;99.90;;;;;;5042221;28;20039;-41
2022/11/20 08:26:33;;;;;;;12.33;8.47;;;-1.60;99.90;;;;;;5042257;28;20028;-42
2022/11/20 08:28:58;;;;;;;11.83;7.97;;;-1.50;99.90;;;;;;5047307;28;20032;-42
2022/11/20 08:31:28;;;;;;;12.83;8.77;;;-1.50;99.90;;;;;;5057863;28;20024;-42
2022/11/20 08:33:54;;;;;;;14.10;9.53;;;-1.40;99.90;;;;;;5041383;28;20029;-41
2022/11/20 08:36:20;;;;;;;14.30;9.40;;;-1.40;99.90;;;;;;5041247;28;21752;-41
2022/11/20 08:38:51;;;;;;;12.77;8.87;;;-1.30;99.90;;;;;;5041877;28;20049;-42
2022/11/20 08:41:28;;;;;;;12.57;9.03;;;-1.30;99.90;;;;;;5041288;28;20438;-42
2022/11/20 08:43:55;;;;;;;12.67;8.00;;;-1.20;99.90;;;;;;5041114;28;20017;-42
2022/11/20 08:46:22;;;;;;;10.90;8.03;;;-1.20;99.90;;;;;;5042375;28;20095;-44
2022/11/20 08:48:48;;;;;;;15.20;9.10;;;-1.10;99.90;;;;;;5041672;28;20025;-43
2022/11/20 08:51:13;;;;;;;12.83;8.33;;;-1.10;99.90;;;;;;5041639;28;20472;-42
2022/11/20 08:53:40;;;;;;;11.60;8.20;;;-1.00;99.90;;;;;;5042436;28;20031;-42
2022/11/20 08:56:06;;;;;;;13.67;9.13;;;-1.00;99.90;;;;;;5041458;28;20035;-41
2022/11/20 08:58:31;;;;;;;11.83;8.77;;;-0.90;99.90;;;;;;5042401;28;20154;-43
2022/11/20 09:01:00;;;;;;;11.43;8.37;;;-0.80;99.90;;;;;;5041425;28;20124;-42
2022/11/20 09:03:26;;;;;;;13.33;9.10;;;-0.80;99.90;;;;;;5041375;28;20098;-42
2022/11/20 09:05:58;;;;;;;13.50;9.37;;;-0.70;99.90;;;;;;5041901;28;20419;-39
2022/11/20 09:08:24;;;;;;;14.73;9.77;;;-0.60;99.90;;;;;;5042687;28;20017;-42
2022/11/20 09:10:54;;;;;;;14.65;9.45;;;-0.60;99.90;;;;;;5041462;28;20087;-41
2022/11/20 09:13:21;;;;;;;12.40;9.17;;;-0.50;99.90;;;;;;5040941;28;20017;-42
2022/11/20 09:16:02;;;;;;;14.23;9.80;;;-0.40;99.90;;;;;;5041216;28;20468;-42
2022/11/20 09:18:28;;;;;;;13.00;8.80;;;-0.40;99.90;;;;;;5042859;28;20051;-42
2022/11/20 09:20:58;;;;;;;13.07;8.95;;;-0.30;99.90;;;;;;5042861;28;20025;-42
2022/11/20 09:23:24;;;;;;;12.20;8.57;;;-0.30;99.90;;;;;;5041599;28;20477;-43
2022/11/20 09:25:50;;;;;;;13.55;9.95;;;-0.20;99.90;;;;;;5043077;28;20032;-41
2022/11/20 09:28:18;;;;;;;13.68;9.88;;;-0.10;99.90;;;;;;5042583;28;20906;-42
2022/11/20 09:30:43;;;;;;;12.73;9.38;;;-0.10;99.90;;;;;;5041844;28;20028;-41
2022/11/20 09:33:09;;;;;;;12.60;9.07;;;-0.10;99.90;;;;;;5043521;28;20029;-42
2022/11/20 09:35:35;;;;;;;12.43;8.55;;;0.00;99.90;;;;;;5041976;28;20118;-39
2022/11/20 09:38:10;;;;;;;13.13;9.75;;;0.00;99.90;;;;;;5041838;28;20386;-41
2022/11/20 09:40:40;;;;;;;13.93;10.70;;;0.00;99.90;;;;;;5041141;28;20056;-43
2022/11/20 09:43:27;;;;;;;15.23;10.57;;;0.10;99.90;;;;;;5042059;28;20032;-42
2022/11/20 09:46:20;;;;;;;16.65;11.20;;;0.20;99.90;;;;;;5040994;28;20025;-42
2022/11/20 09:48:51;;;;;;;14.68;11.27;;;0.20;99.90;;;;;;5043701;28;20032;-42
2022/11/20 09:51:27;;;;;;;13.88;10.38;;;0.20;99.90;;;;;;5044926;28;20033;-42
2022/11/20 09:54:18;;;;;;;15.38;10.73;;;0.30;99.90;;;;;;5045255;28;20021;-43
2022/11/20 09:56:53;;;;;;;14.38;10.07;;;0.30;99.90;;;;;;5035181;28;20472;-40
2022/11/20 09:59:40;;;;;;;14.50;9.90;;;0.40;99.90;;;;;;5045210;28;20036;-39
2022/11/20 10:02:24;;;;;;;15.00;10.35;;;0.40;99.90;;;;;;5036418;28;20033;-42
2022/11/20 10:05:03;;;;;;;16.60;10.40;;;0.50;99.90;;;;;;5043899;28;20120;-41
2022/11/20 10:07:44;;;;;;;15.43;11.25;;;0.50;99.90;;;;;;5044524;28;20029;-42
2022/11/20 10:10:41;;;;;;;16.52;11.32;;;0.60;99.90;;;;;;5045276;28;20104;-42
2022/11/20 10:13:44;;;;;;;13.85;9.85;;;0.70;99.90;;;;;;5044408;28;20049;-42
2022/11/20 10:16:36;;;;;;;13.48;9.98;;;0.70;99.90;;;;;;5045026;28;20035;-41
2022/11/20 10:19:18;;;;;;;14.52;10.45;;;0.80;99.90;;;;;;5048507;28;20040;-41
2022/11/20 10:22:05;;;;;;;14.07;9.30;;;0.90;99.90;;;;;;5045525;28;20579;-40
2022/11/20 10:25:04;;;;;;;14.48;10.25;;;0.90;99.90;;;;;;5052466;28;20033;-39
2022/11/20 10:27:52;;;;;;;14.55;10.50;;;1.00;99.90;;;;;;5043042;28;20365;-41
2022/11/20 10:30:21;;;;;;;15.40;11.38;;;1.00;99.90;;;;;;5046455;28;20041;-42
2022/11/20 10:33:04;;;;;;;14.30;10.25;;;1.10;99.90;;;;;;5046389;28;20392;-41
2022/11/20 10:35:59;;;;;;;14.55;10.95;;;1.20;99.90;;;;;;5045906;28;20041;-41
2022/11/20 10:38:37;;;;;;;15.45;10.50;;;1.20;99.90;;;;;;5044667;28;20037;-41
2022/11/20 10:43:51;;;;;;;12.55;9.25;;;1.30;99.90;;;;;;5046863;28;20076;-39
2022/11/20 10:46:22;;;;;;;13.73;9.82;;;1.40;99.90;;;;;;5042606;28;20033;-41
2022/11/20 10:48:48;;;;;;;14.68;10.55;;;1.40;99.90;;;;;;5043571;28;20384;-41
2022/11/20 10:51:47;;;;;;;13.15;10.18;;;1.50;99.90;;;;;;5044801;28;20096;-41
2022/11/20 10:54:46;;;;;;;14.88;10.10;;;1.50;99.90;;;;;;5055712;28;20036;-41
2022/11/20 10:57:46;;;;;;;14.95;9.90;;;1.50;99.90;;;;;;5052186;28;20147;-40
2022/11/20 11:00:17;;;;;;;14.35;9.88;;;1.50;99.90;;;;;;5023449;28;20038;-42
2022/11/20 11:02:54;;;;;;;13.45;9.77;;;1.50;99.90;;;;;;5038752;28;20796;-42
2022/11/20 11:05:20;;;;;;;15.77;11.32;;;1.60;99.90;;;;;;5023344;28;20029;-39
2022/11/20 11:07:49;;;;;;;16.75;12.18;;;1.50;99.90;;;;;;5038574;28;20029;-39
2022/11/20 11:10:24;;;;;;;16.92;12.13;;;1.60;99.90;;;;;;5043696;28;20094;-39
2022/11/20 11:12:50;;;;;;;18.75;12.93;;;1.60;99.90;;;;;;5044259;28;20383;-41
2022/11/20 11:15:25;;;;;;;20.73;13.13;;;1.60;99.90;;;;;;5044196;28;20797;-41
2022/11/20 11:17:51;;;;;;;17.63;12.88;;;1.70;99.90;;;;;;5043620;28;20394;-41
2022/11/20 11:20:21;;;;;;;15.77;11.57;;;1.70;99.90;;;;;;5044427;28;20029;-41
2022/11/20 11:23:00;;;;;;;17.98;12.00;;;1.80;99.90;;;;;;5043108;28;20067;-40
2022/11/20 11:25:29;;;;;;;17.50;11.80;;;1.90;99.90;;;;;;5043325;28;20503;-39
2022/11/20 11:27:59;;;;;;;17.95;12.73;;;1.90;99.90;;;;;;5043042;28;20508;-38
2022/11/20 11:30:26;;;;;;;21.17;13.38;;;2.00;99.90;;;;;;5043413;28;20049;-39
2022/11/20 11:33:06;;;;;;;19.33;13.35;;;2.10;99.90;;;;;;5043523;28;20017;-40
2022/11/20 11:35:32;;;;;;;22.33;14.05;;;2.10;99.90;;;;;;5043777;28;20128;-40
2022/11/20 11:38:14;;;;;;;19.05;14.20;;;2.20;99.90;;;;;;5042423;28;20039;-41
2022/11/20 11:40:43;;;;;;;21.63;15.45;;;2.20;99.90;;;;;;5043287;28;20443;-40
2022/11/20 11:46:19;;;;;;;22.63;14.88;;;2.30;99.90;;;;;;5043594;28;20523;-38
2022/11/20 11:48:56;;;;;;;21.27;15.15;;;2.40;99.90;;;;;;5043517;28;20029;-39
2022/11/20 11:51:22;;;;;;;23.30;16.55;;;2.40;99.90;;;;;;5042964;28;20046;-41
2022/11/20 11:53:50;;;;;;;23.52;16.92;;;2.40;99.90;;;;;;5042563;28;20029;-40
2022/11/20 11:56:16;;;;;;;21.83;14.88;;;2.40;99.90;;;;;;5043534;28;20025;-37
2022/11/20 11:58:41;;;;;;;20.92;15.05;;;2.40;99.90;;;;;;5042548;28;20033;-40
2022/11/20 12:01:19;;;;;;;20.45;14.80;;;2.50;99.90;;;;;;5043086;28;20697;-39
2022/11/20 12:04:02;;;;;;;19.55;13.65;;;2.50;99.90;;;;;;5042354;28;20048;-40
2022/11/20 12:06:31;;;;;;;18.20;13.55;;;2.50;99.90;;;;;;5042691;28;20059;-40
2022/11/20 12:09:01;;;;;;;17.20;12.30;;;2.50;99.90;;;;;;5042566;28;20045;-38
2022/11/20 12:11:49;;;;;;;18.65;12.63;;;2.50;99.90;;;;;;5043594;28;20029;-40
2022/11/20 12:14:35;;;;;;;18.75;11.63;;;2.60;99.90;;;;;;5042601;28;20094;-39
2022/11/20 12:17:01;;;;;;;16.63;11.45;;;2.60;99.90;;;;;;5043204;28;20378;-39
2022/11/20 12:19:30;;;;;;;18.67;12.68;;;2.60;99.90;;;;;;5042561;28;20123;-40
2022/11/20 12:22:43;;;;;;;18.70;12.57;;;2.60;99.90;;;;;;5043339;28;20621;-38
2022/11/20 12:25:18;;;;;;;15.98;11.43;;;2.60;99.90;;;;;;5019651;28;20034;-40
2022/11/20 12:28:02;;;;;;;17.45;12.25;;;2.60;99.90;;;;;;5038437;28;20226;-37
2022/11/20 12:30:28;;;;;;;17.80;12.85;;;2.70;99.90;;;;;;5042935;28;20040;-37
2022/11/20 12:33:19;;;;;;;17.77;12.90;;;2.70;99.90;;;;;;5042610;28;20021;-40
2022/11/20 12:36:05;;;;;;;17.42;12.95;;;2.80;99.90;;;;;;5042396;28;20156;-41
2022/11/20 12:38:59;;;;;;;18.23;12.63;;;2.80;99.90;;;;;;5022916;28;20045;-39
2022/11/20 12:47:37;;;;;;;22.60;15.80;;;3.00;99.90;;;;;;5031304;28;20051;-40
2022/11/20 12:50:30;;;;;;;21.30;14.48;;;3.00;99.90;;;;;;5042828;28;20021;-40
2022/11/20 12:53:15;;;;;;;22.27;15.02;;;3.00;99.90;;;;;;5034808;28;20029;-40
2022/11/20 12:56:21;;;;;;;20.20;15.32;;;3.10;99.90;;;;;;5041500;28;20753;-33
2022/11/20 12:59:02;;;;;;;20.85;14.40;;;3.10;99.90;;;;;;5043263;28;20174;-40
2022/11/20 13:01:39;;;;;;;21.20;14.45;;;3.10;99.90;;;;;;5042254;28;20021;-41
2022/11/20 13:04:24;;;;;;;18.98;14.63;;;3.20;99.90;;;;;;5042520;28;20029;-40
2022/11/20 13:06:50;;;;;;;18.13;14.52;;;3.10;99.90;;;;;;5042656;28;20839;-40
2022/11/20 13:09:21;;;;;;;18.33;13.40;;;3.10;99.90;;;;;;5041745;28;20025;-38
2022/11/20 13:12:03;;;;;;;16.50;12.82;;;3.10;99.90;;;;;;5042524;28;20112;-40
2022/11/20 13:14:46;;;;;;;22.15;15.23;;;3.10;99.90;;;;;;5042616;28;20083;-39